CYIN

Bleibler Ranch

Bleibler Ranch, British Columbia, Canada
METAR CYIN 161000Z AUTO 24002KT 9SM FEW090 M11/M12 A3008 RMK SLP239
Observed Flight Rules
Dec-16 @ 10:00 UTC (an hour ago) Visual Flight Rules
Wind Visibility Clouds
240° at 2 knots 9 miles
  • Few at 9,000' AGL
Temperatures Readings
Current -11°C / 12°F
Dewpoint -12°C / 10°F
Humidity 92%
Altimeter 30.08" Hg
Pressure 1023.9 hPa
Elevation 1128
METAR CYIN 161000Z AUTO 24002KT 9SM FEW090 M11/M12 A3008 RMK SLP239
Observed Flight Rules
Dec-16 @ 10:00 UTC
(an hour ago)
VFR
Wind Visibility
240° at 2 knots 9 miles
Clouds
  • Few at 9,000' AGL
Temperature Dewpoint
-11°C / 12°F -12°C / 10°F
Humidity Altimeter Pressure
92% 30.08" Hg 1023.9 hPa